createdAt,value
2019-05-09T00:02:35.813Z,11.24
2019-05-09T00:05:05.682Z,11.22
2019-05-09T00:07:35.012Z,11.20
2019-05-09T00:10:04.521Z,11.20
2019-05-09T00:12:33.844Z,11.19
2019-05-09T00:15:04.444Z,11.19
2019-05-09T00:17:34.109Z,11.17
2019-05-09T00:20:10.496Z,11.19
2019-05-09T00:22:39.849Z,11.19
2019-05-09T00:25:09.195Z,11.17
2019-05-09T00:27:38.549Z,11.13
2019-05-09T00:30:08.012Z,11.15
2019-05-09T00:32:39.197Z,11.16
2019-05-09T00:35:33.674Z,11.16
2019-05-09T00:38:07.295Z,11.18
2019-05-09T00:40:36.647Z,11.17
2019-05-09T00:43:06.009Z,11.19
2019-05-09T00:46:06.372Z,11.20
2019-05-09T00:49:01.409Z,11.19
2019-05-09T00:51:30.782Z,11.17
2019-05-09T00:54:00.184Z,11.18
2019-05-09T00:56:29.529Z,11.18
2019-05-09T00:58:58.892Z,11.18
2019-05-09T01:01:28.268Z,11.17
2019-05-09T01:03:57.626Z,11.18
2019-05-09T01:06:26.984Z,11.18
2019-05-09T01:08:56.334Z,11.18
2019-05-09T01:11:25.691Z,11.19
2019-05-09T01:13:55.090Z,11.20
2019-05-09T01:16:24.515Z,11.20
2019-05-09T01:18:54.612Z,11.20
2019-05-09T01:21:24.344Z,11.16
2019-05-09T01:23:54.234Z,11.16
2019-05-09T01:26:24.205Z,11.16
2019-05-09T01:28:54.243Z,11.18
2019-05-09T01:31:24.287Z,11.18
2019-05-09T01:34:10.340Z,11.16
2019-05-09T01:36:57.295Z,11.18
2019-05-09T01:39:26.655Z,11.16
2019-05-09T01:41:55.987Z,11.17
2019-05-09T01:44:25.346Z,11.17
2019-05-09T01:46:54.699Z,11.16
2019-05-09T01:49:24.050Z,11.15
2019-05-09T01:51:53.816Z,11.14
2019-05-09T01:54:24.554Z,11.14
2019-05-09T01:56:53.961Z,11.12
2019-05-09T01:59:24.233Z,11.12
2019-05-09T02:01:54.181Z,11.11
2019-05-09T02:04:24.409Z,11.10
2019-05-09T02:06:53.985Z,11.10
2019-05-09T02:09:23.610Z,11.09
2019-05-09T02:11:54.507Z,11.09
2019-05-09T02:14:31.869Z,11.05
2019-05-09T02:17:17.592Z,11.08
2019-05-09T02:19:47.003Z,11.09
2019-05-09T02:22:35.000Z,11.09
2019-05-09T02:25:08.353Z,11.09
2019-05-09T02:27:37.722Z,11.08
2019-05-09T02:30:07.855Z,11.08
2019-05-09T02:32:37.292Z,11.06
2019-05-09T02:35:07.751Z,11.07
2019-05-09T02:37:38.897Z,11.07
2019-05-09T02:40:10.352Z,11.07
2019-05-09T02:42:40.282Z,11.06
2019-05-09T02:45:10.133Z,11.01
2019-05-09T02:47:39.605Z,11.01
2019-05-09T02:50:10.047Z,11.00
2019-05-09T02:52:40.169Z,10.97
2019-05-09T02:55:10.779Z,10.97
2019-05-09T02:57:40.391Z,11.00
2019-05-09T03:00:32.686Z,10.98
2019-05-09T03:03:10.060Z,10.98
2019-05-09T03:05:39.408Z,10.95
2019-05-09T03:08:09.716Z,10.95
2019-05-09T03:10:39.184Z,10.95
2019-05-09T03:13:09.484Z,10.95
2019-05-09T03:15:39.634Z,10.93
2019-05-09T03:18:09.385Z,10.93
2019-05-09T03:20:58.562Z,10.89
2019-05-09T03:23:28.660Z,10.89
2019-05-09T03:25:59.060Z,10.87
2019-05-09T03:28:45.004Z,10.84
2019-05-09T03:31:19.509Z,10.80
2019-05-09T03:33:50.068Z,10.83
2019-05-09T03:36:18.572Z,10.83
2019-05-09T03:38:47.922Z,10.82
2019-05-09T03:41:17.770Z,10.82
2019-05-09T03:43:48.295Z,10.81
2019-05-09T03:46:30.359Z,10.81
2019-05-09T03:49:00.610Z,10.80
2019-05-09T03:51:29.967Z,10.79
2019-05-09T03:53:59.291Z,10.79
2019-05-09T03:56:33.344Z,10.77
2019-05-09T03:59:02.675Z,10.78
2019-05-09T04:01:32.039Z,10.76
2019-05-09T04:04:01.371Z,10.77
2019-05-09T04:06:31.086Z,10.76
2019-05-09T04:09:00.440Z,10.79
2019-05-09T04:11:29.811Z,10.78
2019-05-09T04:14:03.455Z,10.78
2019-05-09T04:16:32.778Z,10.78
2019-05-09T04:19:02.132Z,10.77
2019-05-09T04:21:31.456Z,10.77
2019-05-09T04:24:00.826Z,10.75
2019-05-09T04:26:52.248Z,10.73
2019-05-09T04:29:21.603Z,10.73
2019-05-09T04:31:50.936Z,10.72
2019-05-09T04:34:20.280Z,10.71
2019-05-09T04:36:49.671Z,10.66
2019-05-09T04:39:23.570Z,10.67
2019-05-09T04:41:50.089Z,10.62
2019-05-09T04:44:28.510Z,10.62
2019-05-09T04:46:59.881Z,10.61
2019-05-09T04:49:30.061Z,10.60
2019-05-09T04:52:07.654Z,10.54
2019-05-09T04:54:38.453Z,10.54
2019-05-09T04:57:08.091Z,10.56
2019-05-09T04:59:37.544Z,10.56
2019-05-09T05:02:28.892Z,10.52
2019-05-09T05:04:58.648Z,10.55
2019-05-09T05:07:28.723Z,10.54
2019-05-09T05:09:58.155Z,10.55
2019-05-09T05:12:27.822Z,10.54
2019-05-09T05:14:58.089Z,10.53
2019-05-09T05:17:28.294Z,10.54
2019-05-09T05:19:59.276Z,10.53
2019-05-09T05:22:41.200Z,10.52
2019-05-09T05:25:10.566Z,10.52
2019-05-09T05:27:39.925Z,10.51
2019-05-09T05:30:09.501Z,10.48
2019-05-09T05:33:03.820Z,10.48
2019-05-09T05:35:58.434Z,10.49
2019-05-09T05:38:27.808Z,10.50
2019-05-09T05:40:57.877Z,10.49
2019-05-09T05:43:40.575Z,10.46
2019-05-09T05:46:08.101Z,10.46
2019-05-09T05:48:38.519Z,10.49
2019-05-09T05:51:08.214Z,10.50
2019-05-09T05:53:38.122Z,10.50
2019-05-09T05:56:08.567Z,10.51
2019-05-09T05:58:38.711Z,10.52
2019-05-09T06:01:08.411Z,10.54
2019-05-09T06:03:37.859Z,10.54
2019-05-09T06:06:08.794Z,10.55
2019-05-09T06:08:38.412Z,10.55
2019-05-09T06:11:11.889Z,10.55
2019-05-09T06:13:53.202Z,10.56
2019-05-09T06:16:09.950Z,10.58
2019-05-09T06:18:39.280Z,10.54
2019-05-09T06:21:09.010Z,10.60
2019-05-09T06:23:38.362Z,10.61
2019-05-09T06:26:09.974Z,10.63
2019-05-09T06:28:38.784Z,10.64
2019-05-09T06:31:08.152Z,10.66
2019-05-09T06:33:44.763Z,10.66
2019-05-09T06:36:08.675Z,10.68
2019-05-09T06:38:38.062Z,10.70
2019-05-09T06:41:08.835Z,10.67
2019-05-09T06:43:39.763Z,10.67
2019-05-09T06:46:37.863Z,10.70
2019-05-09T06:49:26.136Z,10.68
2019-05-09T06:51:42.481Z,10.68
2019-05-09T06:54:11.844Z,10.69
2019-05-09T06:56:41.223Z,10.67
2019-05-09T06:59:10.594Z,10.67
2019-05-09T07:02:08.308Z,10.62
2019-05-09T07:04:47.567Z,10.63
2019-05-09T07:07:33.608Z,10.63
2019-05-09T07:10:04.201Z,10.63
2019-05-09T07:12:33.572Z,10.65
2019-05-09T07:15:02.955Z,10.65
2019-05-09T07:17:32.344Z,10.65
2019-05-09T07:20:01.685Z,10.68
2019-05-09T07:22:49.938Z,10.69
2019-05-09T07:25:38.219Z,10.71
2019-05-09T07:28:07.805Z,10.69
2019-05-09T07:30:44.134Z,10.69
2019-05-09T07:33:21.726Z,10.66
2019-05-09T07:35:51.089Z,10.68
2019-05-09T07:38:29.405Z,10.70
2019-05-09T07:41:00.143Z,10.70
2019-05-09T07:43:29.550Z,10.66
2019-05-09T07:46:29.950Z,10.72
2019-05-09T07:49:00.369Z,10.73
2019-05-09T07:51:29.830Z,10.71
2019-05-09T07:53:59.251Z,10.72
2019-05-09T07:56:28.699Z,10.74
2019-05-09T07:58:58.632Z,10.78
2019-05-09T08:01:28.345Z,10.84
2019-05-09T08:03:58.435Z,10.84
2019-05-09T08:06:28.882Z,10.86
2019-05-09T08:08:58.503Z,10.86
2019-05-09T08:11:29.442Z,10.83
2019-05-09T08:13:59.039Z,10.75
2019-05-09T08:16:28.375Z,10.78
2019-05-09T08:18:58.046Z,10.76
2019-05-09T08:21:27.895Z,10.76
2019-05-09T08:23:58.064Z,10.76
2019-05-09T08:26:29.800Z,10.76
2019-05-09T08:28:58.723Z,10.81
2019-05-09T08:31:28.329Z,10.85
2019-05-09T08:33:59.389Z,10.88
2019-05-09T08:36:29.012Z,10.92
2019-05-09T08:38:58.920Z,10.98
2019-05-09T08:41:29.246Z,11.01
2019-05-09T08:43:58.805Z,11.00
2019-05-09T08:46:28.782Z,11.00
2019-05-09T08:48:58.150Z,11.04
2019-05-09T08:51:50.608Z,11.07
2019-05-09T08:54:10.919Z,11.10
2019-05-09T08:56:40.326Z,11.15
2019-05-09T08:59:09.681Z,11.15
2019-05-09T09:01:54.073Z,11.13
2019-05-09T09:04:10.163Z,11.18
2019-05-09T09:06:39.520Z,11.26
2019-05-09T09:09:09.389Z,11.26
2019-05-09T09:11:38.758Z,11.31
2019-05-09T09:14:08.138Z,11.34
2019-05-09T09:16:38.043Z,11.37
2019-05-09T09:19:09.000Z,11.46
2019-05-09T09:21:38.959Z,11.46
2019-05-09T09:24:08.833Z,11.51
2019-05-09T09:26:38.397Z,11.59
2019-05-09T09:29:08.460Z,11.59
2019-05-09T09:31:38.042Z,11.67
2019-05-09T09:34:08.049Z,11.67
2019-05-09T09:36:39.134Z,11.69
2019-05-09T09:39:08.667Z,11.69
2019-05-09T09:41:38.746Z,11.72
2019-05-09T09:44:08.916Z,11.83
2019-05-09T09:46:38.524Z,11.82
2019-05-09T09:49:08.171Z,11.82
2019-05-09T09:51:38.373Z,11.87
2019-05-09T09:54:08.799Z,11.87
2019-05-09T09:56:38.821Z,11.91
2019-05-09T09:59:28.258Z,11.89
2019-05-09T10:01:58.442Z,11.94
2019-05-09T10:04:28.385Z,11.94
2019-05-09T10:06:58.421Z,12.12
2019-05-09T10:09:27.840Z,12.12
2019-05-09T10:12:00.544Z,12.22
2019-05-09T10:14:37.954Z,12.21
2019-05-09T10:17:35.343Z,12.15
2019-05-09T10:20:13.779Z,12.28
2019-05-09T10:22:46.006Z,12.34
2019-05-09T10:25:14.217Z,12.34
2019-05-09T10:27:44.246Z,12.35
2019-05-09T10:30:13.779Z,12.40
2019-05-09T10:32:43.171Z,12.34
2019-05-09T10:35:17.693Z,12.37
2019-05-09T10:37:48.528Z,12.57
2019-05-09T10:40:23.156Z,12.58
2019-05-09T10:42:58.707Z,12.58
2019-05-09T10:45:59.043Z,12.55
2019-05-09T10:48:28.403Z,12.55
2019-05-09T10:51:04.156Z,12.56
2019-05-09T10:53:28.838Z,12.52
2019-05-09T10:55:58.159Z,12.61
2019-05-09T10:58:28.026Z,12.61
2019-05-09T11:00:58.671Z,12.64
2019-05-09T11:03:28.206Z,12.64
2019-05-09T11:05:58.050Z,12.78
2019-05-09T11:08:28.609Z,12.84
2019-05-09T11:10:58.162Z,12.88
2019-05-09T11:13:28.725Z,12.84
2019-05-09T11:15:58.376Z,12.87
2019-05-09T11:18:28.668Z,12.97
2019-05-09T11:20:58.257Z,12.97
2019-05-09T11:23:29.208Z,12.95
2019-05-09T11:25:58.708Z,13.08
2019-05-09T11:28:28.631Z,13.17
2019-05-09T11:30:58.507Z,13.10
2019-05-09T11:33:28.039Z,13.01
2019-05-09T11:36:00.335Z,13.03
2019-05-09T11:38:36.027Z,13.04
2019-05-09T11:41:00.952Z,13.11
2019-05-09T11:43:30.313Z,13.12
2019-05-09T11:45:59.669Z,13.31
2019-05-09T11:48:29.162Z,13.31
2019-05-09T11:50:59.031Z,13.42
2019-05-09T11:53:28.932Z,13.45
2019-05-09T11:55:58.326Z,13.57
2019-05-09T11:58:28.064Z,13.69
2019-05-09T12:00:57.690Z,13.72
2019-05-09T12:03:27.107Z,13.80
2019-05-09T12:05:58.313Z,13.87
2019-05-09T12:08:27.534Z,13.75
2019-05-09T12:10:57.907Z,13.77
2019-05-09T12:13:27.307Z,13.78
2019-05-09T12:15:58.468Z,13.83
2019-05-09T12:18:28.585Z,13.93
2019-05-09T12:20:58.089Z,13.93
2019-05-09T12:23:29.157Z,13.94
2019-05-09T12:25:58.713Z,13.93
2019-05-09T12:28:28.127Z,14.01
2019-05-09T12:30:57.532Z,14.07
2019-05-09T12:33:28.823Z,14.10
2019-05-09T12:35:59.252Z,14.15
2019-05-09T12:38:28.762Z,14.27
2019-05-09T12:41:00.510Z,14.36
2019-05-09T12:43:29.219Z,14.44
2019-05-09T12:45:58.581Z,14.54
2019-05-09T12:48:28.143Z,14.50
2019-05-09T12:50:58.524Z,14.35
2019-05-09T12:53:28.574Z,14.30
2019-05-09T12:56:00.966Z,14.33
2019-05-09T12:58:30.902Z,14.47
2019-05-09T13:01:00.759Z,14.55
2019-05-09T13:03:30.304Z,14.70
2019-05-09T13:05:59.894Z,14.77
2019-05-09T13:08:29.244Z,14.77
2019-05-09T13:11:01.929Z,14.87
2019-05-09T13:13:32.228Z,14.97
2019-05-09T13:16:13.968Z,14.95
2019-05-09T13:19:02.469Z,14.77
2019-05-09T13:21:32.837Z,14.60
2019-05-09T13:24:02.283Z,14.34
2019-05-09T13:26:31.822Z,14.33
2019-05-09T13:29:01.161Z,14.36
2019-05-09T13:31:30.506Z,14.41
2019-05-09T13:33:59.867Z,14.35
2019-05-09T13:36:29.204Z,14.28
2019-05-09T13:39:04.690Z,14.13
2019-05-09T13:41:29.658Z,14.07
2019-05-09T13:44:04.976Z,14.18
2019-05-09T13:46:30.075Z,14.24
2019-05-09T13:49:10.840Z,14.28
2019-05-09T13:51:33.661Z,14.34
2019-05-09T13:54:03.179Z,14.37
2019-05-09T13:56:32.540Z,14.32
2019-05-09T13:59:01.870Z,14.30
2019-05-09T14:01:31.267Z,14.44
2019-05-09T14:04:00.667Z,14.52
2019-05-09T14:06:30.034Z,14.52
2019-05-09T14:08:59.970Z,14.57
2019-05-09T14:11:29.439Z,14.67
2019-05-09T14:13:58.734Z,14.66
2019-05-09T14:16:28.667Z,14.56
2019-05-09T14:19:04.057Z,14.57
2019-05-09T14:21:29.892Z,14.61
2019-05-09T14:24:10.952Z,14.40
2019-05-09T14:26:30.510Z,14.40
2019-05-09T14:28:59.869Z,14.38
2019-05-09T14:31:32.346Z,14.14
2019-05-09T14:34:00.253Z,14.09
2019-05-09T14:36:29.681Z,14.08
2019-05-09T14:38:58.999Z,14.06
2019-05-09T14:41:28.384Z,14.10
2019-05-09T14:43:59.826Z,14.09
2019-05-09T14:46:28.818Z,14.23
2019-05-09T14:48:58.545Z,14.44
2019-05-09T14:51:28.574Z,14.63
2019-05-09T14:53:59.454Z,14.76
2019-05-09T14:56:29.054Z,14.85
2019-05-09T14:58:58.427Z,14.87
2019-05-09T15:01:28.960Z,14.84
2019-05-09T15:03:58.798Z,14.64
2019-05-09T15:06:28.470Z,14.63
2019-05-09T15:08:58.272Z,14.73
2019-05-09T15:11:28.426Z,14.76
2019-05-09T15:13:58.494Z,14.77
2019-05-09T15:16:28.446Z,14.79
2019-05-09T15:18:58.534Z,14.87
2019-05-09T15:21:27.957Z,14.96
2019-05-09T15:23:59.111Z,15.03
2019-05-09T15:26:28.385Z,14.83
2019-05-09T15:28:58.051Z,14.61
2019-05-09T15:31:28.575Z,14.69
2019-05-09T15:33:58.269Z,14.76
2019-05-09T15:36:27.631Z,14.74
2019-05-09T15:38:59.134Z,14.65
2019-05-09T15:41:28.052Z,14.75
2019-05-09T15:43:57.992Z,14.88
2019-05-09T15:46:33.535Z,15.07
2019-05-09T15:49:02.971Z,15.18
2019-05-09T15:51:32.346Z,15.18
2019-05-09T15:54:01.660Z,15.25
2019-05-09T15:56:31.026Z,15.36
2019-05-09T15:59:00.381Z,15.48
2019-05-09T16:01:29.754Z,15.60
2019-05-09T16:03:59.137Z,15.44
2019-05-09T16:06:32.985Z,15.54
2019-05-09T16:08:59.592Z,15.67
2019-05-09T16:11:28.938Z,15.59
2019-05-09T16:13:58.276Z,15.68
2019-05-09T16:16:28.654Z,15.99
2019-05-09T16:18:58.441Z,16.09
2019-05-09T16:21:28.313Z,16.31
2019-05-09T16:23:59.290Z,16.43
2019-05-09T16:26:29.193Z,16.57
2019-05-09T16:28:58.693Z,16.74
2019-05-09T16:31:28.136Z,16.82
2019-05-09T16:33:58.138Z,16.84
2019-05-09T16:36:28.342Z,16.93
2019-05-09T16:38:58.387Z,17.03
2019-05-09T16:41:28.146Z,17.10
2019-05-09T16:43:58.323Z,17.11
2019-05-09T16:46:28.655Z,17.12
2019-05-09T16:48:58.321Z,17.14
2019-05-09T16:51:28.597Z,17.23
2019-05-09T16:53:58.519Z,17.46
2019-05-09T16:56:28.771Z,17.46
2019-05-09T16:58:58.255Z,17.35
2019-05-09T17:01:28.413Z,17.41
2019-05-09T17:03:57.923Z,17.56
2019-05-09T17:06:27.596Z,17.58
2019-05-09T17:08:58.397Z,17.60
2019-05-09T17:11:27.981Z,17.53
2019-05-09T17:13:58.427Z,17.63
2019-05-09T17:16:28.522Z,17.51
2019-05-09T17:18:58.246Z,17.52
2019-05-09T17:22:00.986Z,17.59
2019-05-09T17:24:30.515Z,17.56
2019-05-09T17:26:59.849Z,17.58
2019-05-09T17:29:29.209Z,17.60
2019-05-09T17:31:58.680Z,17.68
2019-05-09T17:34:28.800Z,17.70
2019-05-09T17:36:58.220Z,17.54
2019-05-09T17:39:27.928Z,17.55
2019-05-09T17:41:58.205Z,17.48
2019-05-09T17:44:28.209Z,17.47
2019-05-09T17:46:58.147Z,17.46
2019-05-09T17:49:28.177Z,17.43
2019-05-09T17:51:58.384Z,17.28
2019-05-09T17:54:28.744Z,17.25
2019-05-09T17:56:58.514Z,17.31
2019-05-09T17:59:29.190Z,17.24
2019-05-09T18:01:59.042Z,17.06
2019-05-09T18:04:28.973Z,16.99
2019-05-09T18:06:58.713Z,16.97
2019-05-09T18:09:28.676Z,16.98
2019-05-09T18:11:58.442Z,17.02
2019-05-09T18:14:27.907Z,16.88
2019-05-09T18:16:58.207Z,16.87
2019-05-09T18:19:29.334Z,16.82
2019-05-09T18:21:58.830Z,16.82
2019-05-09T18:24:28.834Z,16.80
2019-05-09T18:26:58.491Z,16.70
2019-05-09T18:29:27.939Z,16.58
2019-05-09T18:32:22.042Z,16.45
2019-05-09T18:34:53.409Z,16.38
2019-05-09T18:37:22.955Z,16.27
2019-05-09T18:39:52.296Z,16.06
2019-05-09T18:42:21.668Z,15.82
2019-05-09T18:44:51.066Z,15.62
2019-05-09T18:47:20.380Z,15.42
2019-05-09T18:49:49.734Z,15.20
2019-05-09T18:52:19.100Z,15.03
2019-05-09T18:54:48.464Z,14.79
2019-05-09T18:57:18.645Z,14.64
2019-05-09T18:59:48.076Z,14.48
2019-05-09T19:02:17.422Z,14.30
2019-05-09T19:04:46.845Z,14.14
2019-05-09T19:07:22.519Z,13.98
2019-05-09T19:09:47.243Z,13.78
2019-05-09T19:12:16.596Z,13.62
2019-05-09T19:14:47.121Z,13.54
2019-05-09T19:17:41.430Z,13.45
2019-05-09T19:20:24.689Z,13.35
2019-05-09T19:22:54.026Z,13.26
2019-05-09T19:25:23.454Z,13.15
2019-05-09T19:27:52.805Z,13.06
2019-05-09T19:30:22.116Z,12.95
2019-05-09T19:32:51.485Z,12.83
2019-05-09T19:35:20.831Z,12.75
2019-05-09T19:37:50.195Z,12.65
2019-05-09T19:40:20.417Z,12.49
2019-05-09T19:42:49.993Z,12.49
2019-05-09T19:45:19.416Z,12.39
2019-05-09T19:47:48.778Z,12.31
2019-05-09T19:50:18.610Z,12.27
2019-05-09T19:52:47.964Z,12.19
2019-05-09T19:55:17.326Z,12.12
2019-05-09T19:57:46.673Z,12.08
2019-05-09T20:00:17.350Z,12.03
2019-05-09T20:02:46.689Z,11.96
2019-05-09T20:05:16.080Z,11.92
2019-05-09T20:07:45.443Z,11.89
2019-05-09T20:10:34.260Z,11.89
2019-05-09T20:13:34.611Z,11.84
2019-05-09T20:16:04.118Z,11.81
2019-05-09T20:18:33.460Z,11.76
2019-05-09T20:21:02.870Z,11.73
2019-05-09T20:23:32.175Z,11.73
2019-05-09T20:26:01.623Z,11.65
2019-05-09T20:28:30.946Z,11.57
2019-05-09T20:31:00.362Z,11.57
2019-05-09T20:33:29.692Z,11.58
2019-05-09T20:35:59.104Z,11.58
2019-05-09T20:38:28.662Z,11.54
2019-05-09T20:40:58.192Z,11.54
2019-05-09T20:43:27.762Z,11.48
2019-05-09T20:45:57.303Z,11.47
2019-05-09T20:48:26.865Z,11.45
2019-05-09T20:50:56.396Z,11.45
2019-05-09T20:53:25.942Z,11.46
2019-05-09T20:55:55.486Z,11.45
2019-05-09T20:58:25.753Z,11.45
2019-05-09T21:00:55.264Z,11.42
2019-05-09T21:03:24.763Z,11.40
2019-05-09T21:05:54.303Z,11.41
2019-05-09T21:08:23.827Z,11.36
2019-05-09T21:10:53.396Z,11.28
2019-05-09T21:13:22.917Z,11.28
2019-05-09T21:15:52.514Z,11.28
2019-05-09T21:18:22.101Z,11.27
2019-05-09T21:20:51.692Z,11.25
2019-05-09T21:23:24.686Z,11.20
2019-05-09T21:25:52.469Z,11.20
2019-05-09T21:28:22.015Z,11.20
2019-05-09T21:30:51.517Z,11.16
2019-05-09T21:33:21.074Z,11.13
2019-05-09T21:35:50.400Z,11.15
2019-05-09T21:38:19.776Z,11.12
2019-05-09T21:40:49.121Z,11.07
2019-05-09T21:43:18.473Z,11.07
2019-05-09T21:45:47.871Z,11.07
2019-05-09T21:48:17.210Z,11.03
2019-05-09T21:50:46.578Z,11.01
2019-05-09T21:53:15.905Z,11.03
2019-05-09T21:55:45.260Z,11.03
2019-05-09T21:58:14.606Z,11.05
2019-05-09T22:00:46.486Z,11.05
2019-05-09T22:03:15.815Z,11.08
2019-05-09T22:05:45.177Z,11.08
2019-05-09T22:08:14.517Z,11.05
2019-05-09T22:10:43.874Z,10.96
2019-05-09T22:13:13.209Z,10.96
2019-05-09T22:15:42.565Z,10.90
2019-05-09T22:18:11.911Z,10.90
2019-05-09T22:20:41.253Z,10.94
2019-05-09T22:23:10.617Z,10.97
2019-05-09T22:25:39.957Z,10.99
2019-05-09T22:28:09.309Z,10.93
2019-05-09T22:30:38.673Z,10.92
2019-05-09T22:33:07.988Z,10.92
2019-05-09T22:35:37.345Z,10.96
2019-05-09T22:38:07.499Z,10.96
2019-05-09T22:40:36.859Z,10.93
2019-05-09T22:43:06.204Z,10.93
2019-05-09T22:45:35.562Z,10.95
2019-05-09T22:48:08.185Z,10.95
2019-05-09T22:50:37.535Z,10.93
2019-05-09T22:53:06.894Z,10.96
2019-05-09T22:55:36.219Z,10.96
2019-05-09T22:58:05.590Z,10.96
2019-05-09T23:00:34.935Z,10.96
2019-05-09T23:03:04.295Z,10.94
2019-05-09T23:05:33.795Z,10.90
2019-05-09T23:08:03.182Z,10.89
2019-05-09T23:10:32.570Z,10.87
2019-05-09T23:13:01.901Z,10.86
2019-05-09T23:15:31.246Z,10.85
2019-05-09T23:18:00.584Z,10.85
2019-05-09T23:21:07.240Z,10.81
2019-05-09T23:23:44.911Z,10.83
2019-05-09T23:26:18.054Z,10.80
2019-05-09T23:28:47.412Z,10.79
2019-05-09T23:31:20.583Z,10.78
2019-05-09T23:33:49.913Z,10.75
2019-05-09T23:36:19.278Z,10.72
2019-05-09T23:39:06.339Z,10.70
2019-05-09T23:41:35.706Z,10.68
2019-05-09T23:44:05.149Z,10.65
2019-05-09T23:46:34.589Z,10.57
2019-05-09T23:49:03.942Z,10.57
2019-05-09T23:51:44.964Z,10.58
2019-05-09T23:54:45.115Z,10.54
2019-05-09T23:57:21.711Z,10.52
